createdAt,value
2018-09-17T12:25:11.712Z,15.80
2018-09-17T12:28:14.765Z,16.40
2018-09-17T12:31:18.099Z,14.90
2018-09-17T12:32:49.474Z,13.10
2018-09-17T12:35:52.613Z,12.90
2018-09-17T12:37:24.184Z,10.90
2018-09-17T12:38:55.761Z,11.30
2018-09-17T12:40:27.327Z,11.20
2018-09-17T12:43:31.102Z,11.00
2018-09-17T12:45:02.043Z,12.50
2018-09-17T12:46:33.615Z,12.90
2018-09-17T12:48:05.235Z,12.50
2018-09-17T12:49:36.801Z,11.40
2018-09-17T12:51:08.437Z,12.20
2018-09-17T12:52:39.899Z,10.90
2018-09-17T12:55:43.044Z,12.10
2018-09-17T12:57:14.844Z,11.10
2018-09-17T12:58:46.247Z,12.60
2018-09-17T13:01:49.431Z,11.80
2018-09-17T13:03:20.931Z,10.70
2018-09-17T13:04:52.677Z,11.70
2018-09-17T13:06:24.052Z,11.20
2018-09-17T13:07:55.619Z,11.30
2018-09-17T13:09:27.394Z,10.40
2018-09-17T13:10:58.835Z,12.00
2018-09-17T13:12:30.536Z,11.10
2018-09-17T13:14:02.210Z,11.10
2018-09-17T13:15:34.085Z,10.30
2018-09-17T13:17:05.050Z,10.30
2018-09-17T13:18:36.677Z,10.10
2018-09-17T13:20:08.495Z,10.10
2018-09-17T13:21:39.772Z,10.50
2018-09-17T13:23:11.335Z,9.40
2018-09-17T13:24:42.979Z,10.80
2018-09-17T13:26:14.476Z,12.10
2018-09-17T13:27:46.252Z,10.70
2018-09-17T13:30:49.188Z,10.90
2018-09-17T13:32:21.064Z,10.00
2018-09-17T13:35:25.159Z,10.60
2018-09-17T13:36:56.183Z,11.30
2018-09-17T13:38:28.519Z,10.90
2018-09-17T13:39:59.393Z,11.80
2018-09-17T13:41:31.619Z,10.90
2018-09-17T13:43:04.095Z,11.50
2018-09-17T13:44:35.197Z,11.10
2018-09-17T13:47:38.462Z,10.60
2018-09-17T13:49:09.365Z,9.70
2018-09-17T13:50:40.596Z,9.20
2018-09-17T13:52:13.668Z,9.10
2018-09-17T13:53:46.011Z,8.90
2018-09-17T13:55:16.778Z,9.30
2018-09-17T13:56:48.144Z,9.00
2018-09-17T13:58:20.510Z,9.10
2018-09-17T13:59:51.423Z,8.80
2018-09-17T14:01:25.155Z,9.30
2018-09-17T14:02:52.750Z,8.30
2018-09-17T14:04:26.768Z,8.50
2018-09-17T14:05:57.824Z,8.30
2018-09-17T14:07:28.628Z,8.50
2018-09-17T14:08:59.813Z,8.20
2018-09-17T14:10:32.457Z,8.60
2018-09-17T14:12:03.952Z,8.30
2018-09-17T14:13:34.156Z,7.70
2018-09-17T14:15:06.168Z,7.90
2018-09-17T14:16:37.672Z,6.90
2018-09-17T14:18:08.971Z,7.30
2018-09-17T14:19:41.065Z,7.80
2018-09-17T14:21:11.187Z,9.00
2018-09-17T14:22:42.677Z,8.00
2018-09-17T14:24:14.487Z,8.00
2018-09-17T14:25:46.041Z,7.40
2018-09-17T14:27:17.436Z,8.40
2018-09-17T14:28:51.755Z,8.20
2018-09-17T14:30:21.773Z,8.00
2018-09-17T14:31:54.344Z,8.70
2018-09-17T14:33:25.794Z,8.80
2018-09-17T14:34:56.048Z,8.80
2018-09-17T14:36:27.111Z,9.10
2018-09-17T14:37:59.778Z,8.90
2018-09-17T14:39:30.845Z,8.50
2018-09-17T14:41:03.205Z,7.90
2018-09-17T14:42:34.249Z,8.10
2018-09-17T14:44:06.181Z,7.30
2018-09-17T14:45:36.622Z,8.50
2018-09-17T14:47:09.764Z,8.60
2018-09-17T14:48:40.903Z,7.80
2018-09-17T14:50:11.909Z,7.70
2018-09-17T14:51:44.604Z,8.00
2018-09-17T14:53:15.388Z,8.50
2018-09-17T14:54:47.163Z,7.80
2018-09-17T14:56:18.780Z,7.60
2018-09-17T14:57:50.387Z,10.50
2018-09-17T14:59:20.706Z,24.90
2018-09-17T15:00:52.765Z,16.30
2018-09-17T15:02:23.810Z,15.10
2018-09-17T15:03:55.191Z,9.40
2018-09-17T15:05:27.073Z,8.00
2018-09-17T15:06:58.652Z,7.50
2018-09-17T15:08:29.913Z,6.60
2018-09-17T15:10:01.559Z,6.40
2018-09-17T15:11:33.077Z,7.10
2018-09-17T15:14:36.208Z,7.20
2018-09-17T15:16:07.808Z,7.90
2018-09-17T15:17:39.399Z,8.40
2018-09-17T15:19:10.932Z,8.00
2018-09-17T15:20:42.808Z,8.10
2018-09-17T15:22:14.200Z,7.50
2018-09-17T15:25:17.344Z,6.70
2018-09-17T15:26:48.909Z,6.80
2018-09-17T15:28:21.015Z,6.60
2018-09-17T15:29:51.952Z,6.60
2018-09-17T15:31:23.713Z,7.50
2018-09-17T15:32:55.158Z,6.80
2018-09-17T15:34:26.862Z,6.70
2018-09-17T15:35:58.299Z,6.20
2018-09-17T15:37:30.560Z,6.10
2018-09-17T15:39:01.428Z,4.80
2018-09-17T15:40:33.608Z,5.60
2018-09-17T15:42:04.797Z,6.10
2018-09-17T15:43:36.311Z,4.60
2018-09-17T15:45:07.853Z,5.70
2018-09-17T15:46:39.368Z,5.40
2018-09-17T15:48:10.869Z,5.30
2018-09-17T15:49:43.020Z,5.60
2018-09-17T15:51:14.056Z,5.40
2018-09-17T15:52:45.639Z,5.70
2018-09-17T15:54:17.182Z,5.20
2018-09-17T15:55:48.826Z,5.30
2018-09-17T15:57:20.408Z,4.80
2018-09-17T15:58:51.912Z,5.70
2018-09-17T16:00:23.521Z,4.80
2018-09-17T16:01:55.496Z,5.00
2018-09-17T16:03:26.674Z,4.90
2018-09-17T16:04:58.363Z,5.60
2018-09-17T16:08:01.380Z,5.10
2018-09-17T16:09:32.954Z,5.10
2018-09-17T16:11:04.531Z,4.80
2018-09-17T16:12:36.140Z,4.90
2018-09-17T16:15:39.564Z,4.90
2018-09-17T16:17:10.840Z,5.50
2018-09-17T16:18:42.411Z,4.70
2018-09-17T16:20:13.992Z,5.40
2018-09-17T16:21:45.682Z,5.10
2018-09-17T16:23:17.137Z,4.60
2018-09-17T16:24:48.712Z,5.50
2018-09-17T16:26:20.839Z,4.30
2018-09-17T16:27:51.864Z,4.40
2018-09-17T16:30:55.016Z,4.60
2018-09-17T16:32:26.592Z,5.10
2018-09-17T16:33:58.168Z,4.70
2018-09-17T16:38:33.403Z,5.90
2018-09-17T16:40:04.775Z,6.80
2018-09-17T16:41:36.107Z,6.50
2018-09-17T16:43:07.620Z,6.10
2018-09-17T16:44:39.398Z,6.80
2018-09-17T16:46:10.769Z,5.70
2018-09-17T16:47:42.343Z,6.40
2018-09-17T16:49:14.072Z,5.90
2018-09-17T16:50:45.496Z,6.60
2018-09-17T16:52:17.102Z,6.30
2018-09-17T16:53:49.241Z,5.90
2018-09-17T16:55:20.417Z,5.80
2018-09-17T16:56:51.890Z,6.70
2018-09-17T16:58:23.698Z,6.00
2018-09-17T16:59:55.195Z,6.30
2018-09-17T17:01:26.542Z,5.80
2018-09-17T17:04:29.660Z,5.80
2018-09-17T17:06:01.688Z,5.90
2018-09-17T17:07:32.810Z,6.20
2018-09-17T17:09:04.387Z,5.40
2018-09-17T17:10:35.962Z,5.20
2018-09-17T17:12:07.540Z,5.50
2018-09-17T17:15:10.724Z,5.00
2018-09-17T17:16:42.432Z,5.10
2018-09-17T17:18:14.055Z,5.30
2018-09-17T17:19:45.419Z,5.10
2018-09-17T17:21:17.296Z,5.80
2018-09-17T17:22:48.569Z,5.70
2018-09-17T17:24:20.584Z,5.90
2018-09-17T17:27:23.501Z,5.80
2018-09-17T17:28:54.877Z,5.10
2018-09-17T17:30:26.595Z,5.30
2018-09-17T17:31:59.390Z,5.30
2018-09-17T17:33:32.991Z,5.00
2018-09-17T17:35:05.174Z,5.40
2018-09-17T17:36:33.977Z,5.30
2018-09-17T17:38:06.040Z,5.20
2018-09-17T17:39:38.136Z,5.60
2018-09-17T17:41:09.360Z,4.90
2018-09-17T17:42:44.414Z,4.70
2018-09-17T17:44:14.211Z,5.70
2018-09-17T17:45:46.056Z,6.00
2018-09-17T17:47:16.344Z,4.70
2018-09-17T17:48:47.385Z,5.10
2018-09-17T17:50:19.618Z,5.10
2018-09-17T17:51:51.257Z,5.70
2018-09-17T17:53:22.805Z,5.20
2018-09-17T17:54:53.985Z,5.20
2018-09-17T17:56:26.935Z,5.50
2018-09-17T17:57:58.146Z,4.80
2018-09-17T17:59:29.501Z,4.40
2018-09-17T18:00:59.571Z,5.40
2018-09-17T18:02:31.786Z,5.50
2018-09-17T18:04:04.030Z,6.30
2018-09-17T18:05:35.209Z,5.50
2018-09-17T18:07:06.681Z,5.20
2018-09-17T18:08:38.840Z,4.70
2018-09-17T18:10:09.675Z,5.50
2018-09-17T18:11:41.993Z,4.60
2018-09-17T18:13:14.305Z,5.40
2018-09-17T18:14:43.552Z,4.70
2018-09-17T18:16:16.826Z,4.80
2018-09-17T18:17:48.240Z,5.20
2018-09-17T18:19:20.181Z,4.30
2018-09-17T18:20:51.376Z,5.10
2018-09-17T18:22:22.120Z,4.70
2018-09-17T18:23:53.760Z,4.70
2018-09-17T18:25:25.164Z,4.80
2018-09-17T18:26:57.837Z,4.30
2018-09-17T18:28:28.699Z,4.80
2018-09-17T18:30:01.699Z,5.20
2018-09-17T18:31:33.535Z,5.00
2018-09-17T18:33:05.150Z,4.60
2018-09-17T18:34:37.279Z,5.30
2018-09-17T18:37:37.910Z,5.00
2018-09-17T18:39:10.144Z,5.50
2018-09-17T18:40:42.386Z,5.10
2018-09-17T18:42:11.966Z,5.40
2018-09-17T18:43:44.120Z,5.00
2018-09-17T18:45:15.884Z,5.60
2018-09-17T18:46:46.876Z,5.30
2018-09-17T18:48:18.221Z,5.70
2018-09-17T18:49:51.173Z,5.20
2018-09-17T18:51:24.571Z,5.70
2018-09-17T18:52:53.374Z,5.40
2018-09-17T18:54:25.119Z,5.40
2018-09-17T18:55:56.058Z,5.30
2018-09-17T18:57:27.490Z,5.70
2018-09-17T18:58:59.185Z,5.20
2018-09-17T19:00:31.171Z,5.70
2018-09-17T19:02:02.293Z,5.00
2018-09-17T19:03:33.695Z,5.60
2018-09-17T19:05:05.465Z,5.20
2018-09-17T19:06:37.292Z,5.90
2018-09-17T19:08:08.382Z,5.50
2018-09-17T19:09:40.169Z,5.60
2018-09-17T19:12:43.313Z,5.60
2018-09-17T19:14:15.371Z,6.00
2018-09-17T19:15:46.548Z,5.50
2018-09-17T19:17:18.290Z,5.30
2018-09-17T19:18:51.148Z,4.60
2018-09-17T19:20:21.932Z,4.90
2018-09-17T19:21:54.217Z,5.10
2018-09-17T19:23:25.580Z,4.90
2018-09-17T19:24:56.715Z,5.20
2018-09-17T19:26:28.406Z,5.20
2018-09-17T19:28:00.216Z,4.90
2018-09-17T19:29:31.211Z,4.50
2018-09-17T19:31:03.193Z,5.20
2018-09-17T19:32:34.720Z,5.00
2018-09-17T19:34:07.267Z,5.60
2018-09-17T19:35:37.430Z,5.10
2018-09-17T19:37:09.580Z,5.80
2018-09-17T19:38:41.033Z,5.40
2018-09-17T19:40:12.762Z,5.80
2018-09-17T19:41:43.632Z,6.20
2018-09-17T19:43:15.611Z,5.50
2018-09-17T19:44:47.970Z,5.90
2018-09-17T19:46:19.261Z,5.40
2018-09-17T19:47:50.480Z,6.00
2018-09-17T19:49:21.927Z,5.60
2018-09-17T19:50:53.697Z,5.50
2018-09-17T19:52:24.840Z,5.80
2018-09-17T19:53:57.350Z,6.10
2018-09-17T19:55:28.232Z,5.20
2018-09-17T19:57:00.028Z,5.30
2018-09-17T19:58:31.100Z,5.80
2018-09-17T20:00:02.647Z,6.20
2018-09-17T20:01:34.437Z,5.80
2018-09-17T20:03:06.194Z,6.50
2018-09-17T20:04:37.286Z,5.90
2018-09-17T20:06:08.772Z,6.40
2018-09-17T20:07:40.885Z,6.00
2018-09-17T20:09:12.153Z,6.10
2018-09-17T20:10:43.299Z,7.20
2018-09-17T20:12:16.039Z,12.70
2018-09-17T20:13:47.340Z,10.20
2018-09-17T20:15:18.421Z,8.80
2018-09-17T20:16:50.386Z,7.90
2018-09-17T20:18:21.575Z,7.40
2018-09-17T20:19:53.573Z,7.20
2018-09-17T20:21:24.891Z,7.30
2018-09-17T20:22:56.771Z,7.00
2018-09-17T20:24:28.576Z,7.10
2018-09-17T20:26:01.288Z,6.90
2018-09-17T20:27:31.970Z,7.30
2018-09-17T20:29:04.484Z,7.50
2018-09-17T20:30:33.947Z,7.60
2018-09-17T20:32:06.526Z,7.70
2018-09-17T20:33:37.533Z,7.40
2018-09-17T20:35:08.994Z,6.80
2018-09-17T20:36:40.775Z,7.60
2018-09-17T20:38:13.026Z,8.40
2018-09-17T20:39:44.126Z,8.90
2018-09-17T20:41:15.857Z,8.40
2018-09-17T20:42:47.271Z,8.40
2018-09-17T20:44:18.765Z,9.10
2018-09-17T20:45:50.826Z,10.50
2018-09-17T20:47:22.042Z,10.20
2018-09-17T20:48:53.684Z,10.00
2018-09-17T20:50:24.728Z,9.90
2018-09-17T20:51:56.385Z,10.00
2018-09-17T20:53:28.272Z,9.90
2018-09-17T20:54:59.866Z,11.00
2018-09-17T20:56:31.329Z,10.30
2018-09-17T20:58:02.879Z,10.80
2018-09-17T20:59:34.388Z,10.80
2018-09-17T21:01:07.529Z,11.90
2018-09-17T21:02:37.656Z,10.50
2018-09-17T21:04:08.908Z,12.00
2018-09-17T21:05:41.317Z,10.60
2018-09-17T21:07:13.115Z,11.40
2018-09-17T21:08:45.824Z,11.20
2018-09-17T21:10:14.129Z,11.00
2018-09-17T21:11:44.870Z,11.80
2018-09-17T21:13:16.553Z,11.60
2018-09-17T21:14:48.080Z,12.30
2018-09-17T21:16:20.046Z,12.60
2018-09-17T21:17:51.206Z,12.40
2018-09-17T21:19:22.848Z,12.50
2018-09-17T21:20:54.889Z,12.60
2018-09-17T21:22:25.869Z,13.10
2018-09-17T21:23:57.831Z,12.50
2018-09-17T21:25:29.150Z,12.30
2018-09-17T21:27:00.712Z,12.70
2018-09-17T21:28:32.204Z,12.20
2018-09-17T21:30:03.889Z,11.90
2018-09-17T21:31:35.470Z,13.10
2018-09-17T21:33:06.982Z,13.30
2018-09-17T21:34:38.644Z,13.20
2018-09-17T21:36:10.920Z,12.60
2018-09-17T21:37:41.858Z,13.70
2018-09-17T21:39:13.164Z,11.90
2018-09-17T21:40:44.791Z,13.20
2018-09-17T21:42:16.407Z,13.10
2018-09-17T21:43:48.019Z,13.70
2018-09-17T21:45:19.660Z,12.70
2018-09-17T21:46:51.786Z,12.30
2018-09-17T21:48:22.607Z,12.40
2018-09-17T21:49:54.495Z,12.00
2018-09-17T21:51:25.875Z,13.20
2018-09-17T21:52:57.585Z,13.70
2018-09-17T21:54:28.902Z,13.60
2018-09-17T21:56:00.465Z,13.80
2018-09-17T21:57:32.355Z,13.60
2018-09-17T21:59:03.680Z,14.10
2018-09-17T22:00:35.275Z,14.10
2018-09-17T22:02:07.056Z,14.30
2018-09-17T22:03:38.417Z,13.90
2018-09-17T22:05:09.979Z,14.60
2018-09-17T22:06:41.673Z,14.40
2018-09-17T22:08:13.046Z,13.90
2018-09-17T22:11:16.467Z,14.70
2018-09-17T22:12:47.976Z,13.40
2018-09-17T22:14:19.340Z,14.50
2018-09-17T22:15:50.995Z,14.50
2018-09-17T22:17:22.669Z,12.60
2018-09-17T22:20:25.845Z,13.70
2018-09-17T22:21:57.286Z,13.80
2018-09-17T22:23:28.879Z,12.90
2018-09-17T22:25:00.418Z,12.70
2018-09-17T22:26:32.577Z,14.30
2018-09-17T22:28:06.374Z,14.60
2018-09-17T22:29:39.437Z,14.40
2018-09-17T22:31:11.704Z,13.60
2018-09-17T22:32:39.627Z,16.00
2018-09-17T22:34:12.771Z,15.20
2018-09-17T22:35:46.554Z,15.60
2018-09-17T22:37:18.167Z,15.60
2018-09-17T22:38:46.961Z,16.30
2018-09-17T22:40:18.019Z,16.10
2018-09-17T22:41:49.494Z,16.20
2018-09-17T22:43:19.523Z,17.70
2018-09-17T22:44:50.950Z,17.30
2018-09-17T22:46:25.623Z,18.40
2018-09-17T22:47:57.112Z,17.00
2018-09-17T22:49:25.815Z,17.90
2018-09-17T22:50:57.504Z,17.40
2018-09-17T22:52:31.033Z,16.70
2018-09-17T22:54:03.055Z,17.90
2018-09-17T22:55:31.796Z,16.30
2018-09-17T22:57:03.366Z,17.50
2018-09-17T22:58:34.938Z,17.20
2018-09-17T23:00:06.511Z,18.60
2018-09-17T23:01:38.083Z,17.10
2018-09-17T23:03:09.655Z,17.00
2018-09-17T23:04:41.230Z,16.30
2018-09-17T23:06:12.900Z,17.50
2018-09-17T23:07:44.372Z,17.40
2018-09-17T23:09:15.946Z,17.00
2018-09-17T23:10:47.519Z,16.20
2018-09-17T23:12:19.090Z,16.30
2018-09-17T23:13:50.663Z,17.30
2018-09-17T23:15:22.236Z,15.90
2018-09-17T23:16:53.809Z,17.40
2018-09-17T23:18:25.382Z,17.90
2018-09-17T23:19:56.955Z,16.60
2018-09-17T23:21:28.529Z,15.10
2018-09-17T23:23:00.103Z,16.10
2018-09-17T23:24:31.771Z,16.00
2018-09-17T23:26:03.244Z,16.20
2018-09-17T23:27:34.816Z,15.80
2018-09-17T23:29:06.389Z,15.00
2018-09-17T23:30:37.962Z,16.30
2018-09-17T23:32:09.535Z,15.90
2018-09-17T23:33:41.106Z,16.50
2018-09-17T23:35:12.679Z,17.20
2018-09-17T23:36:44.252Z,16.40
2018-09-17T23:38:15.825Z,17.20
2018-09-17T23:39:47.397Z,16.90
2018-09-17T23:41:18.969Z,16.30
2018-09-17T23:42:50.946Z,15.80
2018-09-17T23:44:22.115Z,16.20
2018-09-17T23:45:53.687Z,16.00
2018-09-17T23:47:25.260Z,16.70
2018-09-17T23:48:56.939Z,16.70
2018-09-17T23:50:28.405Z,15.30
2018-09-17T23:51:59.977Z,16.50
2018-09-17T23:53:31.552Z,15.00
2018-09-17T23:55:03.125Z,15.50
2018-09-17T23:56:34.696Z,16.60
2018-09-17T23:58:06.269Z,15.80
2018-09-17T23:59:37.841Z,16.40
